Time;durP1;ratioP1;P1;durP2;ratioP2;P2;SDS_P1;SDS_P2;PMS_P1;PMS_P2;Temp;Humidity;BMP_temperature;BMP_pressure;BME280_temperature;BME280_humidity;BME280_pressure;Samples;Min_cycle;Max_cycle;Signal;HPM_P1;HPM_P2
2023/02/10 00:01:38;;;;;;;24.67;10.90;;;;;;;-4.85;59.84;102292.44;5092935;28;20032;-37
2023/02/10 00:04:04;;;;;;;20.85;9.23;;;;;;;-4.88;59.92;102314.22;5074848;28;20169;-36
2023/02/10 00:06:29;;;;;;;22.13;9.18;;;;;;;-4.87;60.16;102313.31;5092835;28;20039;-36
2023/02/10 00:08:57;;;;;;;23.58;10.63;;;;;;;-5.28;61.36;102315.00;5093126;28;20020;-36
2023/02/10 00:11:56;;;;;;;18.45;9.50;;;;;;;-5.17;60.75;102310.22;5092731;28;20059;-36
2023/02/10 00:14:10;;;;;;;15.57;7.97;;;;;;;-5.12;61.00;102304.84;5091823;28;20043;-36
2023/02/10 00:16:38;;;;;;;18.48;8.70;;;;;;;-5.18;60.78;102284.28;5092484;28;20036;-36
2023/02/10 00:19:04;;;;;;;21.02;8.13;;;;;;;-5.12;60.59;102310.03;5091944;28;20024;-36
2023/02/10 00:21:29;;;;;;;19.17;7.88;;;;;;;-5.22;60.83;102293.94;5091441;28;20396;-37
2023/02/10 00:23:57;;;;;;;17.77;8.18;;;;;;;-5.02;60.80;102300.94;5091878;28;20023;-36
2023/02/10 00:26:23;;;;;;;22.88;9.00;;;;;;;-4.99;60.34;102279.16;5071684;28;20040;-36
2023/02/10 00:28:48;;;;;;;17.33;7.63;;;;;;;-4.90;59.69;102274.41;5092085;28;20126;-36
2023/02/10 00:31:18;;;;;;;21.15;8.75;;;;;;;-4.77;60.04;102299.94;5091309;28;20502;-37
2023/02/10 00:33:44;;;;;;;20.85;9.13;;;;;;;-4.73;59.28;102280.66;5090658;28;20046;-36
2023/02/10 00:36:11;;;;;;;21.30;8.40;;;;;;;-4.91;60.01;102275.31;5073730;28;20492;-36
2023/02/10 00:38:40;;;;;;;21.40;8.70;;;;;;;-4.86;60.12;102302.00;5091989;28;20038;-36
2023/02/10 00:41:08;;;;;;;19.33;9.48;;;;;;;-4.91;60.68;102296.13;5073153;28;20052;-36
2023/02/10 00:43:33;;;;;;;20.85;8.95;;;;;;;-5.08;61.01;102298.59;5091078;28;20428;-36
2023/02/10 00:45:59;;;;;;;19.65;8.35;;;;;;;-5.34;62.19;102295.28;5091834;28;20043;-35
2023/02/10 00:48:25;;;;;;;17.20;7.68;;;;;;;-5.54;63.62;102295.22;5091877;28;20028;-36
2023/02/10 00:50:50;;;;;;;22.23;9.00;;;;;;;-5.65;63.39;102296.47;5091800;28;20085;-35
2023/02/10 00:53:15;;;;;;;23.25;9.05;;;;;;;-5.51;62.73;102292.50;5091766;28;20559;-35
2023/02/10 00:55:41;;;;;;;19.58;8.13;;;;;;;-5.57;62.66;102285.78;5091786;28;20035;-37
2023/02/10 00:58:06;;;;;;;21.75;8.98;;;;;;;-5.58;64.05;102284.06;5091619;28;20028;-36
2023/02/10 01:00:32;;;;;;;19.38;8.55;;;;;;;-5.43;62.83;102290.44;5091590;28;20109;-36
2023/02/10 01:02:57;;;;;;;19.38;8.07;;;;;;;-5.83;63.30;102252.16;5090555;28;20028;-36
2023/02/10 01:05:23;;;;;;;17.40;7.85;;;;;;;-6.50;67.06;102269.34;5073014;28;20043;-36
2023/02/10 01:07:48;;;;;;;20.42;9.82;;;;;;;-6.61;69.72;102293.09;5091418;28;20024;-36
2023/02/10 01:10:13;;;;;;;30.10;12.85;;;;;;;-6.50;69.06;102297.91;5073515;28;20031;-37
2023/02/10 01:12:39;;;;;;;28.23;10.40;;;;;;;-6.53;69.49;102283.28;5091058;28;20024;-36
2023/02/10 01:15:04;;;;;;;19.85;7.97;;;;;;;-6.19;68.83;102284.69;5091319;28;20024;-36
2023/02/10 01:17:30;;;;;;;21.23;8.13;;;;;;;-6.32;69.25;102291.22;5090874;28;20049;-36
2023/02/10 01:19:55;;;;;;;21.40;8.50;;;;;;;-6.54;69.08;102242.69;5091045;28;20036;-36
2023/02/10 01:22:21;;;;;;;20.65;8.70;;;;;;;-6.55;69.84;102292.88;5091109;28;20023;-36
2023/02/10 01:24:47;;;;;;;20.60;7.80;;;;;;;-6.54;69.89;102283.34;5091146;28;20035;-36
2023/02/10 01:27:12;;;;;;;24.88;9.23;;;;;;;-6.30;69.73;102279.03;5091048;28;20044;-36
2023/02/10 01:29:38;;;;;;;26.73;10.32;;;;;;;-6.31;68.39;102248.78;5091040;28;20480;-36
2023/02/10 01:32:03;;;;;;;26.73;10.13;;;;;;;-6.20;68.23;102287.34;5090831;28;20067;-35
2023/02/10 01:34:29;;;;;;;24.33;9.27;;;;;;;-6.20;67.39;102241.44;5090464;28;20024;-36
2023/02/10 01:36:54;;;;;;;18.33;8.55;;;;;;;-5.80;67.19;102284.09;5090824;28;20025;-35
2023/02/10 01:39:22;;;;;;;23.88;8.50;;;;;;;-5.86;65.08;102266.97;5090484;28;20048;-36
2023/02/10 01:41:47;;;;;;;19.52;8.60;;;;;;;-6.07;66.85;102283.38;5090877;28;20035;-36
2023/02/10 01:44:18;;;;;;;21.90;9.30;;;;;;;-5.95;66.12;102288.13;5090775;28;20036;-37
2023/02/10 01:46:44;;;;;;;16.33;7.05;;;;;;;-6.10;66.91;102253.19;5090524;28;20020;-37
2023/02/10 01:49:12;;;;;;;16.30;7.38;;;;;;;-5.52;64.70;102285.59;5090368;28;20031;-36
2023/02/10 01:51:43;;;;;;;19.15;7.53;;;;;;;-5.53;64.08;102263.13;5090308;28;20050;-37
2023/02/10 01:54:12;;;;;;;21.45;6.88;;;;;;;-5.32;63.70;102272.66;5090576;28;20028;-36
2023/02/10 01:56:39;;;;;;;18.98;7.32;;;;;;;-5.38;63.61;102272.91;5090337;28;20503;-36
2023/02/10 01:59:05;;;;;;;21.10;6.72;;;;;;;-5.58;64.21;102242.47;5072090;28;20544;-37
2023/02/10 02:01:30;;;;;;;16.02;6.85;;;;;;;-5.49;63.44;102249.09;5089794;28;20028;-36
2023/02/10 02:03:56;;;;;;;20.40;7.63;;;;;;;-5.27;62.99;102255.13;5090371;28;20404;-37
2023/02/10 02:06:22;;;;;;;18.75;7.30;;;;;;;-5.33;62.65;102254.50;5072214;28;20112;-36
2023/02/10 02:08:48;;;;;;;18.60;6.88;;;;;;;-5.36;63.01;102236.44;5090090;28;20162;-36
2023/02/10 02:11:29;;;;;;;17.90;7.43;;;;;;;-5.52;63.94;102264.81;5071753;28;20404;-37
2023/02/10 02:14:00;;;;;;;15.77;7.45;;;;;;;-5.48;63.91;102261.16;5089972;28;20081;-36
2023/02/10 02:16:52;;;;;;;17.45;8.15;;;;;;;-5.51;63.41;102262.16;5089786;28;20407;-36
2023/02/10 02:19:33;;;;;;;20.00;8.23;;;;;;;-5.49;64.48;102249.09;5089731;28;20043;-36
2023/02/10 02:22:52;;;;;;;16.05;7.15;;;;;;;-5.78;64.76;102251.09;5089460;28;20031;-36
2023/02/10 02:25:32;;;;;;;18.80;7.38;;;;;;;-6.24;65.76;102228.63;5007453;28;20038;-36
2023/02/10 02:28:16;;;;;;;14.25;6.57;;;;;;;-5.95;65.89;102248.31;5062593;28;20405;-36
2023/02/10 02:30:50;;;;;;;15.20;7.00;;;;;;;-6.23;66.20;102238.09;5089824;28;20620;-36
2023/02/10 02:33:35;;;;;;;16.42;6.53;;;;;;;-6.59;67.23;102234.19;5089871;28;20032;-36
2023/02/10 02:36:11;;;;;;;16.23;7.00;;;;;;;-6.68;68.08;102212.03;5071779;28;20038;-36
2023/02/10 02:38:38;;;;;;;17.52;6.88;;;;;;;-6.34;66.86;102231.56;5090054;28;20397;-35
2023/02/10 02:41:04;;;;;;;14.20;6.18;;;;;;;-6.12;65.84;102218.63;5089537;28;20044;-36
2023/02/10 02:43:29;;;;;;;16.67;6.93;;;;;;;-6.29;66.08;102219.25;5071156;28;20480;-36
2023/02/10 02:46:12;;;;;;;13.75;6.45;;;;;;;-6.23;66.90;102238.97;5071530;28;20024;-35
2023/02/10 02:48:46;;;;;;;19.83;7.18;;;;;;;-6.23;67.56;102236.38;5089736;28;20028;-36
2023/02/10 02:51:38;;;;;;;18.40;8.25;;;;;;;-6.51;67.78;102237.38;5089592;28;20035;-36
2023/02/10 02:54:20;;;;;;;17.98;7.75;;;;;;;-6.77;68.27;102211.50;5089816;28;20510;-36
2023/02/10 02:57:03;;;;;;;18.33;8.50;;;;;;;-6.67;68.48;102205.06;5089493;28;20115;-36
2023/02/10 02:59:56;;;;;;;45.30;24.13;;;;;;;-6.96;69.48;102206.94;5071149;28;20081;-37
2023/02/10 03:02:22;;;;;;;20.40;9.65;;;;;;;-6.85;69.53;102221.28;5089660;28;20543;-36
2023/02/10 03:04:48;;;;;;;19.15;7.97;;;;;;;-6.70;69.34;102221.63;5089551;28;20119;-36
2023/02/10 03:07:14;;;;;;;16.27;7.93;;;;;;;-6.64;68.81;102236.09;5088960;28;20042;-36
2023/02/10 03:09:40;;;;;;;19.95;7.22;;;;;;;-6.87;69.74;102217.00;5089201;28;20407;-35
2023/02/10 03:12:05;;;;;;;21.15;9.77;;;;;;;-6.90;70.65;102232.69;5089360;28;20039;-36
2023/02/10 03:14:31;;;;;;;19.10;7.93;;;;;;;-7.14;70.22;102217.94;5089110;28;20074;-35
2023/02/10 03:16:56;;;;;;;17.48;7.57;;;;;;;-7.07;70.91;102232.38;5089344;28;20024;-36
2023/02/10 03:19:22;;;;;;;13.98;7.07;;;;;;;-6.44;68.58;102242.34;5089159;28;20020;-36
2023/02/10 03:21:47;;;;;;;14.50;7.15;;;;;;;-6.47;68.52;102225.97;5089083;28;20127;-36
2023/02/10 03:24:14;;;;;;;19.13;7.72;;;;;;;-6.97;69.56;102228.59;5089462;28;20028;-36
2023/02/10 03:26:39;;;;;;;20.73;8.88;;;;;;;-6.83;69.93;102220.34;5093061;28;20036;-36
2023/02/10 03:29:05;;;;;;;16.23;7.25;;;;;;;-7.06;69.61;102200.38;5093045;28;20086;-36
2023/02/10 03:31:31;;;;;;;17.83;7.32;;;;;;;-6.77;69.70;102224.47;5093074;28;20051;-36
2023/02/10 03:33:57;;;;;;;18.85;8.38;;;;;;;-7.04;70.45;102234.91;5093031;28;20099;-36
2023/02/10 03:36:22;;;;;;;17.95;8.15;;;;;;;-7.67;71.33;102206.69;5093320;28;20043;-36
2023/02/10 03:38:48;;;;;;;21.10;8.25;;;;;;;-7.55;72.52;102208.03;5093097;28;20035;-35
2023/02/10 03:41:13;;;;;;;19.42;7.65;;;;;;;-7.40;71.74;102204.09;5092701;28;20067;-36
2023/02/10 03:43:41;;;;;;;19.40;9.20;;;;;;;-7.39;71.88;102200.63;5092750;28;20034;-36
2023/02/10 03:46:07;;;;;;;22.60;10.77;;;;;;;-6.90;70.60;102219.72;5093126;28;20032;-36
2023/02/10 03:48:32;;;;;;;23.35;10.30;;;;;;;-6.86;70.24;102225.66;5093243;28;20032;-37
2023/02/10 03:50:59;;;;;;;35.22;17.10;;;;;;;-7.06;70.70;102221.13;5074701;28;20096;-36
2023/02/10 03:53:26;;;;;;;31.88;15.27;;;;;;;-7.22;71.19;102196.63;5092562;28;20024;-36
2023/02/10 03:55:51;;;;;;;26.23;11.02;;;;;;;-7.25;70.62;102196.72;5092727;28;20052;-37
2023/02/10 03:58:16;;;;;;;22.25;10.07;;;;;;;-7.37;71.31;102216.97;5092588;28;20059;-36
2023/02/10 04:00:44;;;;;;;19.92;9.77;;;;;;;-7.82;72.92;102206.34;5092698;28;20028;-36
2023/02/10 04:03:09;;;;;;;20.83;8.77;;;;;;;-7.36;71.85;102216.06;5092602;28;20093;-36
2023/02/10 04:05:35;;;;;;;22.67;9.20;;;;;;;-7.31;72.00;102216.78;5092153;28;20496;-35
2023/02/10 04:08:00;;;;;;;20.35;8.57;;;;;;;-7.42;72.84;102211.06;5092511;28;20449;-36
2023/02/10 04:10:26;;;;;;;20.50;7.28;;;;;;;-7.48;72.77;102193.13;5092622;28;20032;-36
2023/02/10 04:12:52;;;;;;;18.30;7.20;;;;;;;-7.53;73.63;102221.78;5092307;28;20059;-36
2023/02/10 04:15:17;;;;;;;20.88;8.57;;;;;;;-7.75;73.02;102172.41;5074315;28;20020;-36
2023/02/10 04:17:43;;;;;;;14.82;7.32;;;;;;;-7.44;73.21;102207.69;5092425;28;20035;-36
2023/02/10 04:20:09;;;;;;;17.52;7.20;;;;;;;-7.62;73.37;102192.72;5092275;28;20032;-36
2023/02/10 04:22:34;;;;;;;15.10;7.55;;;;;;;-7.56;72.67;102192.53;5092035;28;20112;-35
2023/02/10 04:25:02;;;;;;;16.67;8.20;;;;;;;-7.41;72.70;102212.78;5092181;28;20412;-36
2023/02/10 04:27:27;;;;;;;19.13;8.13;;;;;;;-7.32;72.09;102206.44;5091728;28;20484;-35
2023/02/10 04:29:55;;;;;;;16.60;6.93;;;;;;;-7.33;71.44;102192.66;5092529;28;20036;-36
2023/02/10 04:32:20;;;;;;;22.38;9.38;;;;;;;-7.27;71.03;102202.81;5092206;28;20051;-37
2023/02/10 04:34:46;;;;;;;18.67;6.90;;;;;;;-7.39;71.00;102211.00;5092081;28;20492;-36
2023/02/10 04:37:11;;;;;;;18.95;6.65;;;;;;;-7.73;72.26;102221.59;5091870;28;20096;-36
2023/02/10 04:39:36;;;;;;;17.77;7.88;;;;;;;-7.53;72.43;102228.72;5091298;28;20052;-36
2023/02/10 04:42:02;;;;;;;18.05;7.55;;;;;;;-7.27;70.72;102199.38;5091721;28;20032;-37
2023/02/10 04:44:30;;;;;;;16.17;6.88;;;;;;;-7.19;70.97;102223.31;5091919;28;20035;-37
2023/02/10 04:46:57;;;;;;;20.73;7.95;;;;;;;-7.20;70.37;102200.84;5091923;28;20020;-36
2023/02/10 04:49:25;;;;;;;19.05;8.85;;;;;;;-7.00;69.33;102231.31;5091627;28;20082;-36
2023/02/10 04:51:51;;;;;;;22.08;8.40;;;;;;;-6.81;69.14;102238.44;5091741;28;20091;-37
2023/02/10 04:54:16;;;;;;;14.63;6.45;;;;;;;-6.90;68.02;102230.09;5091702;28;20076;-36
2023/02/10 04:56:41;;;;;;;19.27;7.13;;;;;;;-6.95;67.49;102206.03;5091302;28;20024;-36
2023/02/10 04:59:07;;;;;;;18.23;7.47;;;;;;;-7.05;68.59;102204.66;5091862;28;20020;-35
2023/02/10 05:01:33;;;;;;;18.45;7.53;;;;;;;-7.40;69.55;102204.09;5091278;28;20020;-36
2023/02/10 05:03:59;;;;;;;16.05;7.93;;;;;;;-7.86;71.17;102184.03;5091377;28;20036;-36
2023/02/10 05:06:24;;;;;;;17.55;6.43;;;;;;;-7.89;71.91;102196.13;5073253;28;20031;-36
2023/02/10 05:08:50;;;;;;;17.80;6.80;;;;;;;-7.32;69.88;102217.66;5091427;28;20024;-36
2023/02/10 05:11:16;;;;;;;14.13;6.22;;;;;;;-7.51;70.80;102221.75;5090845;28;20024;-36
2023/02/10 05:13:43;;;;;;;17.38;7.15;;;;;;;-7.31;69.59;102202.97;5091541;28;20028;-36
2023/02/10 05:16:10;;;;;;;20.40;7.20;;;;;;;-6.98;69.00;102219.13;5091549;28;20024;-36
2023/02/10 05:18:36;;;;;;;18.67;7.25;;;;;;;-6.82;66.98;102200.41;5091170;28;20032;-37
2023/02/10 05:21:06;;;;;;;20.60;7.35;;;;;;;-7.14;68.01;102225.72;5091204;28;20027;-36
2023/02/10 05:23:31;;;;;;;18.73;7.28;;;;;;;-7.32;69.96;102222.00;5090788;28;20074;-35
2023/02/10 05:25:57;;;;;;;15.23;6.75;;;;;;;-7.17;69.53;102228.41;5091064;28;20412;-35
2023/02/10 05:28:22;;;;;;;19.25;7.13;;;;;;;-6.92;68.13;102242.25;5073151;28;20059;-36
2023/02/10 05:30:48;;;;;;;16.42;6.68;;;;;;;-6.83;68.21;102235.06;5091174;28;20080;-35
2023/02/10 05:33:14;;;;;;;15.15;7.28;;;;;;;-6.69;66.87;102248.41;5090751;28;20408;-35
2023/02/10 05:35:40;;;;;;;17.42;7.45;;;;;;;-6.57;66.17;102247.13;5090910;28;20036;-36
2023/02/10 05:38:05;;;;;;;15.48;7.43;;;;;;;-6.53;65.73;102228.78;5090807;28;20513;-36
2023/02/10 05:40:31;;;;;;;18.83;7.63;;;;;;;-6.72;66.50;102243.31;5072417;28;20040;-37
2023/02/10 05:42:57;;;;;;;19.88;9.02;;;;;;;-7.04;67.77;102237.50;5091057;28;20067;-36
2023/02/10 05:45:23;;;;;;;22.30;8.70;;;;;;;-6.81;67.85;102222.88;5090788;28;20506;-36
2023/02/10 05:47:48;;;;;;;31.48;14.73;;;;;;;-6.61;67.02;102251.56;5090142;28;20373;-36
2023/02/10 05:50:14;;;;;;;70.22;36.67;;;;;;;-6.96;68.67;102225.09;5090495;28;20036;-35
2023/02/10 05:52:40;;;;;;;56.20;26.83;;;;;;;-6.99;70.09;102234.72;5090601;28;20016;-36
2023/02/10 05:55:07;;;;;;;280.02;126.60;;;;;;;-6.95;71.40;102252.72;5090220;28;20024;-36
2023/02/10 05:57:33;;;;;;;78.65;42.15;;;;;;;-6.91;72.63;102251.72;5090483;28;20069;-37
2023/02/10 05:59:58;;;;;;;207.40;118.30;;;;;;;-6.84;72.42;102234.22;5090649;28;20032;-36
2023/02/10 06:02:24;;;;;;;43.90;21.85;;;;;;;-6.68;71.77;102244.88;5090504;28;20110;-36
2023/02/10 06:04:49;;;;;;;27.55;12.13;;;;;;;-6.41;71.22;102247.44;5090412;28;20416;-37
2023/02/10 06:07:16;;;;;;;21.90;9.20;;;;;;;-6.07;71.03;102260.88;5071790;28;20020;-36
2023/02/10 06:09:42;;;;;;;26.02;9.05;;;;;;;-6.23;70.03;102236.38;5090133;28;20593;-37
2023/02/10 06:12:08;;;;;;;23.75;8.82;;;;;;;-6.15;69.28;102257.72;5090128;28;20471;-37
2023/02/10 06:14:34;;;;;;;21.70;8.10;;;;;;;-6.42;71.24;102230.97;5090134;28;20086;-35
2023/02/10 06:17:00;;;;;;;18.85;7.93;;;;;;;-6.14;70.28;102262.00;5090100;28;20101;-35
2023/02/10 06:19:26;;;;;;;23.23;10.27;;;;;;;-6.44;70.41;102212.03;5089911;28;20024;-37
2023/02/10 06:21:51;;;;;;;23.88;10.25;;;;;;;-6.07;69.77;102260.88;5089910;28;20098;-37
2023/02/10 06:24:17;;;;;;;47.15;20.63;;;;;;;-6.00;69.88;102263.25;5071714;28;20038;-36
2023/02/10 06:26:42;;;;;;;25.60;11.57;;;;;;;-6.08;70.89;102240.97;5090156;28;20025;-36
2023/02/10 06:29:08;;;;;;;21.42;8.35;;;;;;;-6.18;70.35;102238.78;5089933;28;20109;-36
2023/02/10 06:31:33;;;;;;;23.73;10.88;;;;;;;-6.04;70.98;102248.66;5089821;28;20032;-36
2023/02/10 06:33:58;;;;;;;23.42;11.05;;;;;;;-5.66;70.32;102250.59;5089798;28;20023;-36
2023/02/10 06:36:24;;;;;;;22.52;9.27;;;;;;;-5.92;70.13;102240.38;5090083;28;20032;-36
2023/02/10 06:38:50;;;;;;;22.25;8.25;;;;;;;-5.79;70.26;102236.38;5089520;28;20032;-35
2023/02/10 06:41:15;;;;;;;25.40;9.93;;;;;;;-5.80;70.37;102265.91;5089665;28;20126;-36
2023/02/10 06:43:41;;;;;;;22.40;9.80;;;;;;;-5.82;69.57;102274.63;5089801;28;20030;-37
2023/02/10 06:46:06;;;;;;;25.75;9.57;;;;;;;-6.02;70.70;102245.09;5071342;28;20495;-37
2023/02/10 06:48:32;;;;;;;20.50;9.50;;;;;;;-5.53;70.06;102258.75;5071531;28;20016;-37
2023/02/10 06:50:58;;;;;;;18.55;7.60;;;;;;;-5.58;67.79;102246.84;5089394;28;20028;-37
2023/02/10 06:53:23;;;;;;;18.25;7.35;;;;;;;-5.32;68.04;102228.44;5071062;28;20085;-37
2023/02/10 06:55:49;;;;;;;20.92;9.05;;;;;;;-5.21;67.91;102227.16;5071478;28;20547;-36
2023/02/10 06:58:15;;;;;;;18.48;8.20;;;;;;;-4.48;67.39;102270.88;5089562;28;20016;-36
2023/02/10 07:00:43;;;;;;;23.95;9.48;;;;;;;-4.33;66.21;102269.38;5088509;28;20032;-36
2023/02/10 07:03:08;;;;;;;22.83;9.07;;;;;;;-4.51;65.86;102255.38;5089411;28;20854;-36
2023/02/10 07:05:35;;;;;;;16.73;8.20;;;;;;;-4.20;67.12;102267.06;5089320;28;20056;-36
2023/02/10 07:08:03;;;;;;;17.67;8.57;;;;;;;-4.05;66.18;102268.94;5089048;28;20020;-36
2023/02/10 07:10:30;;;;;;;18.15;9.02;;;;;;;-3.68;65.29;102269.88;5089407;28;20114;-36
2023/02/10 07:12:58;;;;;;;17.23;8.02;;;;;;;-3.68;64.38;102272.47;5089186;28;20032;-37
2023/02/10 07:15:24;;;;;;;24.27;9.00;;;;;;;-3.68;65.21;102262.06;5089537;28;20039;-36
2023/02/10 07:17:50;;;;;;;19.85;7.53;;;;;;;-3.51;64.83;102257.78;5089154;28;20480;-35
2023/02/10 07:20:17;;;;;;;20.30;9.15;;;;;;;-3.25;63.82;102252.16;5089287;28;20031;-36
2023/02/10 07:22:43;;;;;;;20.38;9.82;;;;;;;-2.92;62.35;102271.41;5089007;28;20020;-37
2023/02/10 07:25:09;;;;;;;18.63;8.55;;;;;;;-2.79;63.00;102276.88;5089212;28;20032;-37
2023/02/10 07:27:34;;;;;;;18.73;9.10;;;;;;;-2.87;62.77;102254.59;5089096;28;20032;-36
2023/02/10 07:30:00;;;;;;;23.30;9.68;;;;;;;-2.64;61.66;102289.16;5089120;28;20464;-37
2023/02/10 07:32:25;;;;;;;24.60;10.05;;;;;;;-2.57;60.63;102267.03;5089413;28;20040;-37
2023/02/10 07:34:51;;;;;;;24.75;10.50;;;;;;;-2.38;61.09;102271.31;5088929;28;20048;-37
2023/02/10 07:37:16;;;;;;;36.00;15.65;;;;;;;-2.40;60.48;102263.53;5088938;28;20024;-36
2023/02/10 07:39:42;;;;;;;28.35;12.85;;;;;;;-2.24;60.36;102274.03;5070697;28;20059;-36
2023/02/10 07:42:08;;;;;;;23.58;9.70;;;;;;;-2.48;60.36;102258.69;5070801;28;20782;-36
2023/02/10 07:44:33;;;;;;;25.35;10.73;;;;;;;-2.25;60.93;102282.78;5088815;28;20028;-37
2023/02/10 07:46:58;;;;;;;17.65;9.50;;;;;;;-2.25;60.88;102294.09;5088987;28;20027;-37
2023/02/10 07:49:26;;;;;;;26.58;11.25;;;;;;;-2.19;60.83;102266.78;5088557;28;20040;-36
2023/02/10 07:51:52;;;;;;;22.40;10.80;;;;;;;-2.18;60.36;102278.94;5088955;28;20024;-37
2023/02/10 07:54:17;;;;;;;23.30;10.43;;;;;;;-2.45;59.73;102260.31;5089384;28;20032;-35
2023/02/10 07:56:42;;;;;;;23.58;10.30;;;;;;;-2.05;59.56;102274.72;5088812;28;20028;-36
2023/02/10 07:59:08;;;;;;;25.42;12.43;;;;;;;-1.58;59.79;102261.75;5088882;28;20040;-37
2023/02/10 08:01:36;;;;;;;23.45;11.05;;;;;;;-1.45;59.30;102258.38;5088393;28;20020;-36
2023/02/10 08:04:03;;;;;;;23.25;11.52;;;;;;;-1.45;59.69;102268.84;5088679;28;20024;-37
2023/02/10 08:06:29;;;;;;;24.35;11.45;;;;;;;-1.20;57.89;102253.50;5088809;28;20067;-37
2023/02/10 08:08:54;;;;;;;27.90;13.85;;;;;;;-1.27;58.91;102268.69;5088844;28;20024;-36
2023/02/10 08:11:20;;;;;;;24.30;12.57;;;;;;;-1.45;57.27;102247.91;5090144;28;20024;-36
2023/02/10 08:13:48;;;;;;;24.60;10.82;;;;;;;-1.23;57.55;102255.38;5092412;28;20032;-37
2023/02/10 08:16:13;;;;;;;29.85;14.15;;;;;;;-0.88;56.46;102262.09;5092348;28;20035;-37
2023/02/10 08:18:38;;;;;;;30.00;13.77;;;;;;;-0.84;56.37;102272.31;5073567;28;20036;-37
2023/02/10 08:21:04;;;;;;;28.92;12.15;;;;;;;-0.88;56.53;102276.03;5091978;28;20028;-37
2023/02/10 08:23:30;;;;;;;31.88;14.95;;;;;;;-0.97;56.99;102263.47;5073549;28;20032;-37
2023/02/10 08:25:56;;;;;;;25.40;13.20;;;;;;;-0.66;55.40;102272.13;5091985;28;20047;-37
2023/02/10 08:28:22;;;;;;;24.20;12.68;;;;;;;-0.68;55.77;102266.97;5092296;28;20039;-37
2023/02/10 08:30:47;;;;;;;23.63;12.63;;;;;;;-0.50;55.46;102265.03;5092154;28;20664;-37
2023/02/10 08:33:13;;;;;;;24.05;12.52;;;;;;;-0.68;55.18;102253.88;5073329;28;20119;-37
2023/02/10 08:35:39;;;;;;;29.42;12.25;;;;;;;-0.67;55.39;102244.28;5092057;28;20038;-36
2023/02/10 08:38:06;;;;;;;25.63;11.45;;;;;;;-0.13;54.69;102252.31;5092334;28;20044;-37
2023/02/10 08:40:32;;;;;;;30.00;14.43;;;;;;;0.01;54.82;102261.94;5091591;28;20048;-37
2023/02/10 08:42:58;;;;;;;31.85;15.73;;;;;;;0.02;53.87;102268.03;5091887;28;20077;-37
2023/02/10 08:45:24;;;;;;;28.08;14.27;;;;;;;0.01;53.71;102263.72;5091367;28;20028;-37
2023/02/10 08:47:50;;;;;;;27.77;14.55;;;;;;;0.15;52.80;102253.22;5091604;28;20027;-39
2023/02/10 08:50:15;;;;;;;31.10;16.33;;;;;;;0.61;52.38;102271.25;5091767;28;20737;-37
2023/02/10 08:52:41;;;;;;;24.50;13.20;;;;;;;0.51;52.07;102265.78;5073666;28;20031;-37
2023/02/10 08:55:07;;;;;;;25.98;13.65;;;;;;;0.56;51.74;102262.84;5091429;28;20031;-37
2023/02/10 08:57:33;;;;;;;30.63;14.77;;;;;;;0.48;52.03;102267.75;5090795;28;20024;-36
2023/02/10 08:59:59;;;;;;;27.55;13.93;;;;;;;0.20;50.65;102227.50;5091349;28;20054;-35
2023/02/10 09:02:24;;;;;;;27.45;13.05;;;;;;;0.42;51.23;102232.22;5090819;28;20411;-36
2023/02/10 09:04:49;;;;;;;30.17;14.73;;;;;;;0.75;50.85;102221.28;5091411;28;20490;-36
2023/02/10 09:07:16;;;;;;;29.70;12.77;;;;;;;1.02;50.05;102244.03;5090676;28;20472;-36
2023/02/10 09:09:42;;;;;;;29.38;15.40;;;;;;;1.28;50.01;102244.06;5090839;28;20024;-36
2023/02/10 09:12:11;;;;;;;30.23;15.70;;;;;;;1.31;49.48;102235.97;5091179;28;20070;-36
2023/02/10 09:14:40;;;;;;;31.67;14.95;;;;;;;1.29;49.62;102243.09;5091124;28;20028;-36
2023/02/10 09:17:07;;;;;;;27.98;13.60;;;;;;;1.57;48.83;102261.31;5090764;28;20016;-36
2023/02/10 09:19:35;;;;;;;30.92;14.00;;;;;;;1.36;48.23;102249.63;5072803;28;20028;-36
2023/02/10 09:22:00;;;;;;;23.40;10.52;;;;;;;1.05;48.36;102237.75;5090267;28;20028;-36
2023/02/10 09:24:26;;;;;;;29.60;14.40;;;;;;;1.26;48.99;102257.31;5090694;28;20031;-36
2023/02/10 09:26:51;;;;;;;26.00;14.18;;;;;;;1.56;47.63;102233.34;5090838;28;20020;-36
2023/02/10 09:29:16;;;;;;;30.35;13.88;;;;;;;1.94;46.91;102240.34;5072371;28;20059;-37
2023/02/10 09:31:42;;;;;;;29.20;14.07;;;;;;;2.57;47.03;102234.94;5090590;28;20027;-36
2023/02/10 09:34:08;;;;;;;21.58;11.60;;;;;;;2.72;44.26;102215.38;5090696;28;20480;-36
2023/02/10 09:36:34;;;;;;;24.85;12.77;;;;;;;2.47;44.35;102218.13;5072589;28;20411;-36
2023/02/10 09:38:59;;;;;;;23.13;11.15;;;;;;;2.75;44.44;102227.47;5090318;28;20038;-36
2023/02/10 09:41:25;;;;;;;17.67;9.73;;;;;;;2.26;43.93;102233.69;5090372;28;20032;-37
2023/02/10 09:44:17;;;;;;;18.98;9.85;;;;;;;2.18;43.08;102223.72;5090523;28;20041;-37
2023/02/10 09:46:45;;;;;;;22.25;10.98;;;;;;;2.89;44.28;102218.53;5090761;28;20123;-37
2023/02/10 09:49:44;;;;;;;24.13;12.27;;;;;;;2.84;42.71;102221.50;5090431;28;20480;-37
2023/02/10 09:52:28;;;;;;;18.90;9.85;;;;;;;3.03;41.94;102212.22;5090489;28;20027;-37
2023/02/10 09:54:55;;;;;;;15.02;8.63;;;;;;;2.79;40.93;102192.84;5072267;28;20473;-37
2023/02/10 09:58:01;;;;;;;21.90;11.57;;;;;;;3.17;43.11;102178.56;5090296;28;20108;-37
2023/02/10 10:00:34;;;;;;;20.73;10.05;;;;;;;3.48;41.97;102192.00;5089518;28;20047;-37
2023/02/10 10:03:05;;;;;;;19.90;10.15;;;;;;;3.86;40.91;102172.28;5089860;28;20031;-37
2023/02/10 10:06:04;;;;;;;21.17;10.48;;;;;;;4.07;41.33;102190.84;5090131;28;20039;-37
2023/02/10 10:08:53;;;;;;;23.20;10.55;;;;;;;3.90;40.97;102200.09;5090345;28;20023;-37
2023/02/10 10:11:46;;;;;;;19.55;9.57;;;;;;;4.08;39.89;102186.41;5089742;28;20484;-36
2023/02/10 10:14:26;;;;;;;19.40;9.45;;;;;;;3.73;39.90;102169.78;5090143;28;20558;-36
2023/02/10 10:17:04;;;;;;;18.60;9.13;;;;;;;3.81;40.22;102191.13;5090310;28;20483;-36
2023/02/10 10:19:54;;;;;;;16.48;8.23;;;;;;;3.77;40.06;102184.41;5089470;28;20024;-36
2023/02/10 10:22:45;;;;;;;19.23;8.75;;;;;;;4.18;39.09;102176.75;5089953;28;20028;-36
2023/02/10 10:25:47;;;;;;;16.35;7.70;;;;;;;4.66;38.74;102173.69;5089943;28;20119;-36
2023/02/10 10:28:22;;;;;;;16.33;8.65;;;;;;;4.58;38.44;102173.50;5089898;28;20085;-36
2023/02/10 10:31:03;;;;;;;17.95;7.78;;;;;;;4.49;37.60;102137.25;5089884;28;20111;-36
2023/02/10 10:33:38;;;;;;;14.80;7.65;;;;;;;4.91;37.38;102121.41;5089360;28;20024;-36
2023/02/10 10:36:05;;;;;;;11.95;6.38;;;;;;;5.11;36.57;102133.75;5089669;28;20377;-37
2023/02/10 10:38:37;;;;;;;14.80;7.88;;;;;;;5.43;37.43;102148.63;5089628;28;20035;-36
2023/02/10 10:41:08;;;;;;;15.60;7.28;;;;;;;5.39;36.19;102141.91;5089468;28;20040;-36
2023/02/10 10:43:45;;;;;;;16.55;7.38;;;;;;;5.40;37.71;102141.78;5089466;28;20052;-35
2023/02/10 10:46:16;;;;;;;15.02;8.00;;;;;;;5.54;36.32;102139.75;5089364;28;20123;-36
2023/02/10 10:48:42;;;;;;;15.77;7.40;;;;;;;5.74;35.16;102125.59;5089055;28;20053;-36
2023/02/10 10:51:10;;;;;;;18.08;8.18;;;;;;;5.44;36.45;102126.50;5089515;28;20085;-36
2023/02/10 10:53:42;;;;;;;15.52;7.40;;;;;;;6.12;35.70;102133.75;5089153;28;20024;-37
2023/02/10 10:56:16;;;;;;;15.48;7.50;;;;;;;6.46;34.22;102135.97;5089409;28;20101;-37
2023/02/10 10:58:44;;;;;;;16.35;7.50;;;;;;;6.16;34.79;102113.94;5089305;28;20565;-37
2023/02/10 11:01:11;;;;;;;17.33;7.78;;;;;;;5.98;33.92;102122.56;5089138;28;20074;-36
2023/02/10 11:03:37;;;;;;;13.13;6.97;;;;;;;5.31;34.80;102115.28;5089042;28;20066;-36
2023/02/10 11:06:16;;;;;;;16.60;6.80;;;;;;;5.96;35.31;102103.34;5089500;28;20055;-36
2023/02/10 11:09:17;;;;;;;14.63;7.38;;;;;;;6.67;32.97;102106.66;5089095;28;20059;-37
2023/02/10 11:11:43;;;;;;;13.48;6.57;;;;;;;6.93;32.92;102088.28;5088883;28;20036;-37
2023/02/10 11:14:21;;;;;;;13.60;6.32;;;;;;;7.12;31.86;102096.16;5089199;28;20031;-37
2023/02/10 11:17:04;;;;;;;16.65;6.68;;;;;;;6.34;32.01;102085.78;5089215;28;20115;-37
2023/02/10 11:19:33;;;;;;;13.93;7.43;;;;;;;6.55;33.44;102100.66;5088855;28;20035;-36
2023/02/10 11:21:59;;;;;;;15.70;8.07;;;;;;;7.01;32.57;102083.09;5088685;28;20032;-37
2023/02/10 11:24:26;;;;;;;15.13;7.18;;;;;;;7.70;31.33;102099.47;5089358;28;20061;-37